createdAt,value
2022-10-06T00:00:38.851Z,0.60
2022-10-06T00:03:05.330Z,0.40
2022-10-06T00:05:31.973Z,0.50
2022-10-06T00:07:59.523Z,0.50
2022-10-06T00:10:26.367Z,0.40
2022-10-06T00:12:52.741Z,0.70
2022-10-06T00:15:22.963Z,0.50
2022-10-06T00:17:50.492Z,0.30
2022-10-06T00:20:17.955Z,0.55
2022-10-06T00:22:48.193Z,0.30
2022-10-06T00:25:18.357Z,0.60
2022-10-06T00:27:47.495Z,0.50
2022-10-06T00:30:17.509Z,0.40
2022-10-06T00:32:53.759Z,0.70
2022-10-06T00:35:21.625Z,0.38
2022-10-06T00:37:48.163Z,0.40
2022-10-06T00:40:14.985Z,0.45
2022-10-06T00:43:04.240Z,0.73
2022-10-06T00:45:42.827Z,0.40
2022-10-06T00:48:23.602Z,0.40
2022-10-06T00:50:54.089Z,0.55
2022-10-06T00:53:22.107Z,0.60
2022-10-06T00:55:49.764Z,0.50
2022-10-06T00:58:16.359Z,0.45
2022-10-06T01:00:44.248Z,0.45
2022-10-06T01:03:33.176Z,0.60
2022-10-06T01:06:02.073Z,0.30
2022-10-06T01:08:31.094Z,0.32
2022-10-06T01:10:57.896Z,0.47
2022-10-06T01:13:27.312Z,0.40
2022-10-06T01:16:02.205Z,0.40
2022-10-06T01:18:32.007Z,0.47
2022-10-06T01:21:27.879Z,0.40
2022-10-06T01:23:57.078Z,0.47
2022-10-06T01:26:25.225Z,0.25
2022-10-06T01:28:51.940Z,0.38
2022-10-06T01:31:18.680Z,0.38
2022-10-06T01:33:45.124Z,0.50
2022-10-06T01:36:11.569Z,0.20
2022-10-06T01:38:37.966Z,0.40
2022-10-06T01:41:04.741Z,0.82
2022-10-06T01:43:31.198Z,0.40
2022-10-06T01:45:58.378Z,0.52
2022-10-06T01:48:25.932Z,0.50
2022-10-06T01:50:53.209Z,0.40
2022-10-06T01:53:19.967Z,0.52
2022-10-06T01:55:46.512Z,0.88
2022-10-06T01:58:13.375Z,0.57
2022-10-06T02:00:40.020Z,0.40
2022-10-06T02:03:07.435Z,0.40
2022-10-06T02:05:34.888Z,0.50
2022-10-06T02:08:02.655Z,0.30
2022-10-06T02:10:29.663Z,0.40
2022-10-06T02:12:57.235Z,0.50
2022-10-06T02:15:23.689Z,0.40
2022-10-06T02:17:50.211Z,0.40
2022-10-06T02:20:16.850Z,0.50
2022-10-06T02:22:43.827Z,0.47
2022-10-06T02:25:12.136Z,0.38
2022-10-06T02:27:39.448Z,0.43
2022-10-06T02:30:07.716Z,0.50
2022-10-06T02:32:36.348Z,0.40
2022-10-06T02:35:03.859Z,0.60
2022-10-06T02:37:30.884Z,0.40
2022-10-06T02:39:57.420Z,0.40
2022-10-06T02:42:23.923Z,0.40
2022-10-06T02:44:52.181Z,0.68
2022-10-06T02:47:22.176Z,0.47
2022-10-06T02:49:48.647Z,0.40
2022-10-06T02:52:15.485Z,0.30
2022-10-06T02:54:42.403Z,0.30
2022-10-06T02:57:09.289Z,0.30
2022-10-06T02:59:36.445Z,0.35
2022-10-06T03:02:03.260Z,0.47
2022-10-06T03:04:30.185Z,0.30
2022-10-06T03:06:57.287Z,0.40
2022-10-06T03:09:23.864Z,0.40
2022-10-06T03:11:50.251Z,0.50
2022-10-06T03:14:21.591Z,0.30
2022-10-06T03:16:50.297Z,0.43
2022-10-06T03:19:17.229Z,0.60
2022-10-06T03:21:44.502Z,0.35
2022-10-06T03:24:11.225Z,0.60
2022-10-06T03:26:47.033Z,0.40
2022-10-06T03:29:14.445Z,0.50
2022-10-06T03:31:40.941Z,0.50
2022-10-06T03:34:07.595Z,0.30
2022-10-06T03:36:35.308Z,0.40
2022-10-06T03:39:03.927Z,0.57
2022-10-06T03:41:32.750Z,0.38
2022-10-06T03:44:00.021Z,0.32
2022-10-06T03:46:29.014Z,0.30
2022-10-06T03:48:57.308Z,0.30
2022-10-06T03:51:31.111Z,0.40
2022-10-06T03:53:58.515Z,0.40
2022-10-06T03:56:34.345Z,0.50
2022-10-06T03:59:03.263Z,0.40
2022-10-06T04:01:35.511Z,0.28
2022-10-06T04:04:02.589Z,0.55
2022-10-06T04:06:31.562Z,0.30
2022-10-06T04:08:58.531Z,0.45
2022-10-06T04:11:27.619Z,0.35
2022-10-06T04:14:00.558Z,0.47
2022-10-06T04:16:31.383Z,0.40
2022-10-06T04:19:03.794Z,0.60
2022-10-06T04:21:32.286Z,0.47
2022-10-06T04:23:59.926Z,0.32
2022-10-06T04:26:28.775Z,0.30
2022-10-06T04:28:55.256Z,0.50
2022-10-06T04:31:25.748Z,0.50
2022-10-06T04:33:55.353Z,0.45
2022-10-06T04:36:27.911Z,0.40
2022-10-06T04:38:58.790Z,0.50
2022-10-06T04:41:47.311Z,0.30
2022-10-06T04:44:14.299Z,0.70
2022-10-06T04:46:43.839Z,0.50
2022-10-06T04:49:18.589Z,0.52
2022-10-06T04:51:46.133Z,0.63
2022-10-06T04:54:12.581Z,0.55
2022-10-06T04:56:39.039Z,0.60
2022-10-06T04:59:05.571Z,0.70
2022-10-06T05:01:34.577Z,3.03
2022-10-06T05:04:03.015Z,0.88
2022-10-06T05:06:33.515Z,0.80
2022-10-06T05:09:04.986Z,0.82
2022-10-06T05:11:31.935Z,0.70
2022-10-06T05:13:58.981Z,2.67
2022-10-06T05:16:27.894Z,1.55
2022-10-06T05:18:54.650Z,1.08
2022-10-06T05:21:26.335Z,0.90
2022-10-06T05:23:52.803Z,0.75
2022-10-06T05:26:21.807Z,0.98
2022-10-06T05:28:48.586Z,0.82
2022-10-06T05:31:17.587Z,0.98
2022-10-06T05:33:44.301Z,0.77
2022-10-06T05:36:15.734Z,0.90
2022-10-06T05:38:42.931Z,0.90
2022-10-06T05:41:27.004Z,1.00
2022-10-06T05:43:53.610Z,0.90
2022-10-06T05:46:23.780Z,0.88
2022-10-06T05:49:10.352Z,0.98
2022-10-06T05:51:38.769Z,2.40
2022-10-06T05:54:05.567Z,1.17
2022-10-06T05:56:39.039Z,1.00
2022-10-06T05:59:06.120Z,1.15
2022-10-06T06:01:35.564Z,1.15
2022-10-06T06:04:06.414Z,1.05
2022-10-06T06:06:38.825Z,1.20
2022-10-06T06:09:08.447Z,1.70
2022-10-06T06:14:08.137Z,0.90
2022-10-06T06:16:37.012Z,1.13
2022-10-06T06:19:03.559Z,0.73
2022-10-06T06:21:30.186Z,1.00
2022-10-06T06:23:57.373Z,0.80
2022-10-06T06:26:26.015Z,0.88
2022-10-06T06:28:54.280Z,0.80
2022-10-06T06:31:22.109Z,1.08
2022-10-06T06:33:52.017Z,0.82
2022-10-06T06:36:27.091Z,0.90
2022-10-06T06:38:55.529Z,1.83
2022-10-06T06:41:26.977Z,1.35
2022-10-06T06:43:54.228Z,1.90
2022-10-06T06:46:25.854Z,0.95
2022-10-06T06:48:53.484Z,1.77
2022-10-06T06:51:24.121Z,2.75
2022-10-06T06:53:51.976Z,2.40
2022-10-06T06:56:19.486Z,1.90
2022-10-06T06:58:50.204Z,2.90
2022-10-06T07:01:18.506Z,3.40
2022-10-06T07:04:03.400Z,3.15
2022-10-06T07:06:31.160Z,2.30
2022-10-06T07:08:59.263Z,2.30
2022-10-06T07:11:31.595Z,5.05
2022-10-06T07:14:01.372Z,3.80
2022-10-06T07:16:48.144Z,2.13
2022-10-06T07:19:33.519Z,1.20
2022-10-06T07:22:31.172Z,0.95
2022-10-06T07:25:12.772Z,1.25
2022-10-06T07:27:42.462Z,1.40
2022-10-06T07:32:38.140Z,1.40
2022-10-06T07:35:07.434Z,1.40
2022-10-06T07:37:35.164Z,1.23
2022-10-06T07:40:02.108Z,1.10
2022-10-06T07:42:28.615Z,1.40
2022-10-06T07:45:13.383Z,1.55
2022-10-06T07:47:39.817Z,2.30
2022-10-06T07:50:08.094Z,1.10
2022-10-06T07:52:37.019Z,1.83
2022-10-06T07:55:03.664Z,1.20
2022-10-06T07:57:35.445Z,0.88
2022-10-06T08:00:07.355Z,1.02
2022-10-06T08:02:35.822Z,1.02
2022-10-06T08:05:04.012Z,1.13
2022-10-06T08:07:30.436Z,1.10
2022-10-06T08:09:56.902Z,1.48
2022-10-06T08:12:37.841Z,0.95
2022-10-06T08:15:08.680Z,1.70
2022-10-06T08:17:36.438Z,1.88
2022-10-06T08:20:04.831Z,1.40
2022-10-06T08:22:31.435Z,1.10
2022-10-06T08:25:06.875Z,0.98
2022-10-06T08:27:34.964Z,1.00
2022-10-06T08:30:02.096Z,0.80
2022-10-06T08:32:28.522Z,0.85
2022-10-06T08:34:55.203Z,1.02
2022-10-06T08:37:23.827Z,0.95
2022-10-06T08:39:54.939Z,0.80
2022-10-06T08:42:36.704Z,0.93
2022-10-06T08:45:09.390Z,1.10
2022-10-06T08:47:37.152Z,0.60
2022-10-06T08:50:12.719Z,1.00
2022-10-06T08:52:58.368Z,0.90
2022-10-06T08:55:34.595Z,0.70
2022-10-06T08:58:34.887Z,0.60
2022-10-06T09:01:15.850Z,0.70
2022-10-06T09:03:49.106Z,0.70
2022-10-06T09:06:31.707Z,1.30
2022-10-06T09:09:06.261Z,0.82
2022-10-06T09:11:50.907Z,1.00
2022-10-06T09:14:28.651Z,1.10
2022-10-06T09:17:00.741Z,0.95
2022-10-06T09:19:39.776Z,1.08
2022-10-06T09:22:15.646Z,0.90
2022-10-06T09:24:47.175Z,1.05
2022-10-06T09:27:28.112Z,1.27
2022-10-06T09:29:54.935Z,1.10
2022-10-06T09:32:24.206Z,1.10
2022-10-06T09:35:02.555Z,1.15
2022-10-06T09:37:29.058Z,1.15
2022-10-06T09:39:55.839Z,1.02
2022-10-06T09:42:26.919Z,1.15
2022-10-06T09:45:04.911Z,1.15
2022-10-06T09:47:41.759Z,1.00
2022-10-06T09:50:28.011Z,1.30
2022-10-06T09:52:57.357Z,0.75
2022-10-06T09:57:57.247Z,1.00
2022-10-06T10:00:31.240Z,1.10
2022-10-06T10:03:06.671Z,1.02
2022-10-06T10:05:37.369Z,1.50
2022-10-06T10:08:11.405Z,1.50
2022-10-06T10:10:37.934Z,1.17
2022-10-06T10:13:19.149Z,1.10
2022-10-06T10:15:55.916Z,1.33
2022-10-06T10:18:28.780Z,1.30
2022-10-06T10:21:07.091Z,1.30
2022-10-06T10:23:36.243Z,1.43
2022-10-06T10:26:08.000Z,1.25
2022-10-06T10:28:46.864Z,1.50
2022-10-06T10:31:31.706Z,1.40
2022-10-06T10:34:38.263Z,1.10
2022-10-06T10:37:12.189Z,1.30
2022-10-06T10:40:00.764Z,0.93
2022-10-06T10:42:37.275Z,1.42
2022-10-06T10:45:12.005Z,1.30
2022-10-06T10:47:41.845Z,1.00
2022-10-06T10:50:11.197Z,1.50
2022-10-06T10:52:42.897Z,1.40
2022-10-06T10:55:35.962Z,1.08
2022-10-06T10:58:14.577Z,0.85
2022-10-06T11:00:46.275Z,1.20
2022-10-06T11:03:12.960Z,1.52
2022-10-06T11:05:48.251Z,1.30
2022-10-06T11:08:37.822Z,1.20
2022-10-06T11:11:10.822Z,1.13
2022-10-06T11:13:48.156Z,1.38
2022-10-06T11:16:37.109Z,1.30
2022-10-06T11:19:35.376Z,1.35
2022-10-06T11:22:31.470Z,1.23
2022-10-06T11:25:15.694Z,1.30
2022-10-06T11:28:12.810Z,1.38
2022-10-06T11:31:21.816Z,1.55
2022-10-06T11:33:52.910Z,1.95
2022-10-06T11:36:42.161Z,1.63
2022-10-06T11:39:27.617Z,1.35
2022-10-06T11:42:11.122Z,1.65
2022-10-06T11:44:52.184Z,1.42
2022-10-06T11:47:35.053Z,1.50
2022-10-06T11:50:02.658Z,1.48
2022-10-06T11:52:29.050Z,1.17
2022-10-06T11:55:06.227Z,1.48
2022-10-06T11:57:33.531Z,1.90
2022-10-06T12:00:05.824Z,1.70
2022-10-06T12:02:32.242Z,2.00
2022-10-06T12:05:35.701Z,1.70
2022-10-06T12:07:57.885Z,1.45
2022-10-06T12:10:27.311Z,1.83
2022-10-06T12:13:13.900Z,1.63
2022-10-06T12:19:19.307Z,1.58
2022-10-06T12:22:01.054Z,1.48
2022-10-06T12:24:41.330Z,1.30
2022-10-06T12:27:26.304Z,1.60
2022-10-06T12:30:02.378Z,1.52
2022-10-06T12:32:50.018Z,1.83
2022-10-06T12:35:37.656Z,1.10
2022-10-06T12:38:06.206Z,1.10
2022-10-06T12:40:39.324Z,1.58
2022-10-06T12:43:14.588Z,1.67
2022-10-06T12:45:46.293Z,1.48
2022-10-06T12:48:54.268Z,1.88
2022-10-06T12:51:26.832Z,1.38
2022-10-06T12:54:02.494Z,1.73
2022-10-06T12:56:31.847Z,1.30
2022-10-06T13:01:26.828Z,1.75
2022-10-06T13:03:54.496Z,1.50
2022-10-06T13:06:23.437Z,1.50
2022-10-06T13:09:14.492Z,1.85
2022-10-06T13:11:40.999Z,1.80
2022-10-06T13:14:10.564Z,1.60
2022-10-06T13:16:42.987Z,1.00
2022-10-06T13:19:19.451Z,1.70
2022-10-06T13:21:46.592Z,1.70
2022-10-06T13:24:16.717Z,1.48
2022-10-06T13:26:43.139Z,2.03
2022-10-06T13:29:21.810Z,1.70
2022-10-06T13:31:52.841Z,1.38
2022-10-06T13:34:24.576Z,1.73
2022-10-06T13:36:52.329Z,1.58
2022-10-06T13:39:21.510Z,1.70
2022-10-06T13:41:55.975Z,1.73
2022-10-06T13:44:34.688Z,1.90
2022-10-06T13:47:04.744Z,1.70
2022-10-06T13:49:43.388Z,1.92
2022-10-06T13:52:37.808Z,1.40
2022-10-06T13:55:14.757Z,1.10
2022-10-06T13:58:06.508Z,1.65
2022-10-06T14:01:00.662Z,1.83
2022-10-06T14:03:33.838Z,1.20
2022-10-06T14:06:16.919Z,1.60
2022-10-06T14:08:51.762Z,1.70
2022-10-06T14:11:24.892Z,1.77
2022-10-06T14:13:54.754Z,2.42
2022-10-06T14:16:24.714Z,1.67
2022-10-06T14:19:02.689Z,1.10
2022-10-06T14:21:33.095Z,1.10
2022-10-06T14:24:04.835Z,1.70
2022-10-06T14:26:36.250Z,1.30
2022-10-06T14:29:03.468Z,1.42
2022-10-06T14:31:31.766Z,1.70
2022-10-06T14:33:58.243Z,1.50
2022-10-06T14:36:34.474Z,1.48
2022-10-06T14:39:02.032Z,1.30
2022-10-06T14:41:30.155Z,1.30
2022-10-06T14:43:59.008Z,1.50
2022-10-06T14:46:25.522Z,1.48
2022-10-06T14:48:52.332Z,2.30
2022-10-06T14:51:20.051Z,1.30
2022-10-06T14:53:54.682Z,1.45
2022-10-06T14:56:23.233Z,1.23
2022-10-06T14:58:50.886Z,1.30
2022-10-06T15:01:20.995Z,1.30
2022-10-06T15:03:55.402Z,1.77
2022-10-06T15:06:40.923Z,1.38
2022-10-06T15:09:07.987Z,1.10
2022-10-06T15:11:35.630Z,1.65
2022-10-06T15:14:03.401Z,1.60
2022-10-06T15:16:31.617Z,1.52
2022-10-06T15:18:59.088Z,1.42
2022-10-06T15:21:26.655Z,1.58
2022-10-06T15:23:58.394Z,1.52
2022-10-06T15:26:44.214Z,1.70
2022-10-06T15:29:11.304Z,1.45
2022-10-06T15:31:52.848Z,1.52
2022-10-06T15:34:27.879Z,1.38
2022-10-06T15:36:56.456Z,1.40
2022-10-06T15:39:25.452Z,1.50
2022-10-06T15:41:52.400Z,1.73
2022-10-06T15:44:20.055Z,2.97
2022-10-06T15:46:51.835Z,1.85
2022-10-06T15:49:22.366Z,1.27
2022-10-06T15:51:49.769Z,1.67
2022-10-06T15:54:21.972Z,1.33
2022-10-06T15:56:53.312Z,1.30
2022-10-06T15:59:26.602Z,1.58
2022-10-06T16:01:58.347Z,1.50
2022-10-06T16:04:35.504Z,1.55
2022-10-06T16:07:03.466Z,1.40
2022-10-06T16:09:38.104Z,1.98
2022-10-06T16:12:08.695Z,1.50
2022-10-06T16:14:35.820Z,1.20
2022-10-06T16:17:04.235Z,1.40
2022-10-06T16:19:32.340Z,1.63
2022-10-06T16:22:00.402Z,1.30
2022-10-06T16:24:27.162Z,1.73
2022-10-06T16:26:54.429Z,1.98
2022-10-06T16:29:21.871Z,1.95
2022-10-06T16:31:48.635Z,1.63
2022-10-06T16:34:15.589Z,2.30
2022-10-06T16:36:42.980Z,1.88
2022-10-06T16:39:17.903Z,2.38
2022-10-06T16:41:44.692Z,1.20
2022-10-06T16:44:11.629Z,1.50
2022-10-06T16:46:38.352Z,1.55
2022-10-06T16:49:07.306Z,1.60
2022-10-06T16:51:42.411Z,1.30
2022-10-06T16:54:11.077Z,1.80
2022-10-06T16:56:39.195Z,1.58
2022-10-06T16:59:12.736Z,1.65
2022-10-06T17:01:39.500Z,1.75
2022-10-06T17:04:07.511Z,1.70
2022-10-06T17:06:39.288Z,1.58
2022-10-06T17:09:16.548Z,1.50
2022-10-06T17:11:48.911Z,2.15
2022-10-06T17:14:15.810Z,3.13
2022-10-06T17:16:43.848Z,4.47
2022-10-06T17:19:12.693Z,2.05
2022-10-06T17:21:46.205Z,1.80
2022-10-06T17:24:14.470Z,1.73
2022-10-06T17:26:43.157Z,1.85
2022-10-06T17:29:15.389Z,3.83
2022-10-06T17:31:43.465Z,1.60
2022-10-06T17:34:19.610Z,1.42
2022-10-06T17:36:48.895Z,1.75
2022-10-06T17:39:18.151Z,1.58
2022-10-06T17:41:46.081Z,1.80
2022-10-06T17:44:18.818Z,1.70
2022-10-06T17:46:45.615Z,1.98
2022-10-06T17:49:15.119Z,1.75
2022-10-06T17:51:45.089Z,1.60
2022-10-06T17:54:16.705Z,1.67
2022-10-06T17:56:44.605Z,1.40
2022-10-06T17:59:14.075Z,4.05
2022-10-06T18:04:07.598Z,1.83
2022-10-06T18:06:36.108Z,1.83
2022-10-06T18:09:04.297Z,2.10
2022-10-06T18:11:38.384Z,1.88
2022-10-06T18:14:34.802Z,1.80
2022-10-06T18:17:02.327Z,2.10
2022-10-06T18:19:31.230Z,2.33
2022-10-06T18:22:00.422Z,2.00
2022-10-06T18:24:29.012Z,2.28
2022-10-06T18:26:57.063Z,2.70
2022-10-06T18:29:28.884Z,2.20
2022-10-06T18:32:09.140Z,2.22
2022-10-06T18:37:29.248Z,2.10
2022-10-06T18:39:55.679Z,2.13
2022-10-06T18:42:22.098Z,2.15
2022-10-06T18:45:07.280Z,2.13
2022-10-06T18:47:52.273Z,1.92
2022-10-06T18:50:19.799Z,2.63
2022-10-06T18:52:46.159Z,2.08
2022-10-06T18:55:13.302Z,2.30
2022-10-06T18:57:40.731Z,1.80
2022-10-06T19:00:09.273Z,1.80
2022-10-06T19:02:35.857Z,2.47
2022-10-06T19:05:02.353Z,2.25
2022-10-06T19:07:30.618Z,2.10
2022-10-06T19:09:57.188Z,2.00
2022-10-06T19:12:23.640Z,2.08
2022-10-06T19:14:50.167Z,2.10
2022-10-06T19:17:16.781Z,2.38
2022-10-06T19:19:54.962Z,1.95
2022-10-06T19:22:24.641Z,1.95
2022-10-06T19:24:52.184Z,2.53
2022-10-06T19:27:23.920Z,1.95
2022-10-06T19:29:56.465Z,2.30
2022-10-06T19:32:28.941Z,1.63
2022-10-06T19:34:58.649Z,2.10
2022-10-06T19:37:29.733Z,1.90
2022-10-06T19:39:56.945Z,1.92
2022-10-06T19:42:41.826Z,2.33
2022-10-06T19:45:09.424Z,2.05
2022-10-06T19:47:35.875Z,1.95
2022-10-06T19:50:08.780Z,2.00
2022-10-06T19:52:38.020Z,1.75
2022-10-06T19:55:05.003Z,1.70
2022-10-06T19:57:32.480Z,2.10
2022-10-06T19:59:58.959Z,2.08
2022-10-06T20:02:25.465Z,2.20
2022-10-06T20:04:51.959Z,1.92
2022-10-06T20:07:21.623Z,2.00
2022-10-06T20:09:48.174Z,2.20
2022-10-06T20:12:14.983Z,1.88
2022-10-06T20:14:41.422Z,2.00
2022-10-06T20:17:07.884Z,1.95
2022-10-06T20:19:35.244Z,1.98
2022-10-06T20:22:01.764Z,2.17
2022-10-06T20:24:28.302Z,1.63
2022-10-06T20:26:54.762Z,2.13
2022-10-06T20:29:26.030Z,2.17
2022-10-06T20:31:54.775Z,2.05
2022-10-06T20:34:24.762Z,2.10
2022-10-06T20:36:56.007Z,1.60
2022-10-06T20:39:41.940Z,1.75
2022-10-06T20:42:15.005Z,1.98
2022-10-06T20:44:42.577Z,2.15
2022-10-06T20:47:10.500Z,2.00
2022-10-06T20:49:37.390Z,1.95
2022-10-06T20:52:04.595Z,2.85
2022-10-06T20:54:34.662Z,1.75
2022-10-06T20:57:03.857Z,2.28
2022-10-06T20:59:31.558Z,1.65
2022-10-06T21:02:00.247Z,2.15
2022-10-06T21:04:27.716Z,1.80
2022-10-06T21:06:57.397Z,2.00
2022-10-06T21:09:28.697Z,2.00
2022-10-06T21:11:57.466Z,1.92
2022-10-06T21:14:24.613Z,1.90
2022-10-06T21:16:51.724Z,1.63
2022-10-06T21:19:19.476Z,2.30
2022-10-06T21:21:51.967Z,1.95
2022-10-06T21:24:19.301Z,1.60
2022-10-06T21:26:45.979Z,1.80
2022-10-06T21:29:16.339Z,1.80
2022-10-06T21:31:43.943Z,1.92
2022-10-06T21:34:10.869Z,1.90
2022-10-06T21:36:38.314Z,1.77
2022-10-06T21:39:06.038Z,1.58
2022-10-06T21:41:41.084Z,1.95
2022-10-06T21:44:19.120Z,2.17
2022-10-06T21:46:47.138Z,1.92
2022-10-06T21:49:19.767Z,1.42
2022-10-06T21:51:49.281Z,1.73
2022-10-06T21:56:43.432Z,1.50
2022-10-06T21:59:11.131Z,2.10
2022-10-06T22:01:43.427Z,1.85
2022-10-06T22:04:12.819Z,1.25
2022-10-06T22:06:39.522Z,1.42
2022-10-06T22:09:07.939Z,1.92
2022-10-06T22:11:37.224Z,2.42
2022-10-06T22:14:08.478Z,1.58
2022-10-06T22:16:36.462Z,1.80
2022-10-06T22:19:05.796Z,1.83
2022-10-06T22:21:35.331Z,1.90
2022-10-06T22:24:03.770Z,1.70
2022-10-06T22:26:32.542Z,1.60
2022-10-06T22:28:59.978Z,1.70
2022-10-06T22:31:28.295Z,1.52
2022-10-06T22:33:57.157Z,1.50
2022-10-06T22:36:25.046Z,1.85
2022-10-06T22:38:52.110Z,1.75
2022-10-06T22:41:18.996Z,1.73
2022-10-06T22:43:45.681Z,1.75
2022-10-06T22:46:12.974Z,1.85
2022-10-06T22:48:39.906Z,1.83
2022-10-06T22:51:06.849Z,1.50
2022-10-06T22:53:34.124Z,1.30
2022-10-06T22:56:01.952Z,1.60
2022-10-06T22:58:28.970Z,1.73
2022-10-06T23:00:55.964Z,1.80
2022-10-06T23:03:23.529Z,1.48
2022-10-06T23:05:58.598Z,1.63
2022-10-06T23:08:28.136Z,1.75
2022-10-06T23:11:06.699Z,1.50
2022-10-06T23:13:33.359Z,1.70
2022-10-06T23:16:08.373Z,1.70
2022-10-06T23:18:37.653Z,1.52
2022-10-06T23:21:10.035Z,1.80
2022-10-06T23:23:37.322Z,1.55
2022-10-06T23:26:09.917Z,1.55
2022-10-06T23:28:37.247Z,1.50
2022-10-06T23:31:05.484Z,1.40
2022-10-06T23:33:32.926Z,1.42
2022-10-06T23:36:01.743Z,1.85
2022-10-06T23:38:28.698Z,1.63
2022-10-06T23:40:55.542Z,1.52
2022-10-06T23:43:22.854Z,1.20
2022-10-06T23:45:50.026Z,1.70
2022-10-06T23:48:16.888Z,1.85
2022-10-06T23:50:43.439Z,1.70
2022-10-06T23:53:10.011Z,1.70
2022-10-06T23:55:36.609Z,1.60
2022-10-06T23:58:03.171Z,1.60
